Time;durP1;ratioP1;P1;durP2;ratioP2;P2;SDS_P1;SDS_P2;PMS_P1;PMS_P2;Temp;Humidity;BMP_temperature;BMP_pressure;BME280_temperature;BME280_humidity;BME280_pressure;Samples;Min_cycle;Max_cycle;Signal;HPM_P1;HPM_P2
2022/06/04 00:00:31;;;;;;;2.38;1.80;;;;;;;;;;5044408;28;20428;-54
2022/06/04 00:02:57;;;;;;;3.28;1.77;;;;;;;;;;5043363;28;20437;-55
2022/06/04 00:05:27;;;;;;;4.93;1.92;;;;;;;;;;5040713;28;20602;-55
2022/06/04 00:07:54;;;;;;;2.15;1.50;;;;;;;;;;5044389;28;20579;-54
2022/06/04 00:15:51;;;;;;;2.38;1.58;;;;;;;;;;5045799;28;20032;-53
2022/06/04 00:18:18;;;;;;;5.03;1.85;;;;;;;;;;5040756;28;20395;-51
2022/06/04 00:20:45;;;;;;;5.25;1.83;;;;;;;;;;5041861;28;20021;-52
2022/06/04 00:23:11;;;;;;;3.10;1.77;;;;;;;;;;5051009;28;20037;-54
2022/06/04 00:25:39;;;;;;;1.50;1.27;;;;;;;;;;5049030;28;20044;-53
2022/06/04 00:28:06;;;;;;;2.50;1.80;;;;;;;;;;5040068;28;20147;-55
2022/06/04 00:30:33;;;;;;;2.50;1.70;;;;;;;;;;5040905;28;20045;-51
2022/06/04 00:32:59;;;;;;;1.90;1.35;;;;;;;;;;5048324;28;20034;-51
2022/06/04 00:35:25;;;;;;;3.10;1.70;;;;;;;;;;5045560;28;20029;-54
2022/06/04 00:37:51;;;;;;;2.88;2.13;;;;;;;;;;5040285;28;20370;-52
2022/06/04 00:40:23;;;;;;;2.53;1.75;;;;;;;;;;5048698;28;20377;-51
2022/06/04 00:42:49;;;;;;;2.63;1.73;;;;;;;;;;5042528;28;20427;-54
2022/06/04 00:45:21;;;;;;;2.47;1.70;;;;;;;;;;5040654;28;20033;-56
2022/06/04 00:47:47;;;;;;;3.97;2.13;;;;;;;;;;5044686;28;20551;-53
2022/06/04 00:50:14;;;;;;;2.45;1.55;;;;;;;;;;5046878;28;20124;-55
2022/06/04 00:52:41;;;;;;;5.22;2.00;;;;;;;;;;5033514;28;20026;-52
2022/06/04 00:55:09;;;;;;;3.42;1.95;;;;;;;;;;5045721;28;20032;-54
2022/06/04 00:57:53;;;;;;;2.42;1.70;;;;;;;;;;5043307;28;20040;-54
2022/06/04 01:00:22;;;;;;;3.10;1.90;;;;;;;;;;5036087;28;20036;-54
2022/06/04 01:03:07;;;;;;;3.22;2.05;;;;;;;;;;5043400;28;20044;-53
2022/06/04 01:05:39;;;;;;;4.57;1.80;;;;;;;;;;5053237;28;20025;-52
2022/06/04 01:08:05;;;;;;;7.30;2.20;;;;;;;;;;5045830;28;20135;-54
2022/06/04 01:10:31;;;;;;;4.40;2.33;;;;;;;;;;5034808;28;20532;-55
2022/06/04 01:13:01;;;;;;;6.22;2.10;;;;;;;;;;5047755;28;20033;-55
2022/06/04 01:15:32;;;;;;;2.97;2.08;;;;;;;;;;5031734;28;20036;-54
2022/06/04 01:18:10;;;;;;;2.90;1.63;;;;;;;;;;5049902;28;20044;-54
2022/06/04 01:20:39;;;;;;;2.15;1.60;;;;;;;;;;5038259;28;20112;-54
2022/06/04 01:23:15;;;;;;;3.63;1.65;;;;;;;;;;5049463;28;20149;-52
2022/06/04 01:25:51;;;;;;;2.88;2.05;;;;;;;;;;5039034;28;20034;-55
2022/06/04 01:28:18;;;;;;;3.60;1.83;;;;;;;;;;5035502;28;20021;-54
2022/06/04 01:30:46;;;;;;;4.65;1.40;;;;;;;;;;5043209;28;20060;-53
2022/06/04 01:33:18;;;;;;;4.63;1.88;;;;;;;;;;5044355;28;20060;-52
2022/06/04 01:35:46;;;;;;;4.78;1.73;;;;;;;;;;5047585;28;20396;-54
2022/06/04 01:38:15;;;;;;;5.72;2.15;;;;;;;;;;5043204;28;20033;-51
2022/06/04 01:41:05;;;;;;;2.70;1.85;;;;;;;;;;5043613;28;20049;-53
2022/06/04 01:43:34;;;;;;;4.20;1.80;;;;;;;;;;5039038;28;20044;-52
2022/06/04 01:46:03;;;;;;;2.05;1.60;;;;;;;;;;5038831;28;20033;-52
2022/06/04 01:48:32;;;;;;;5.45;1.80;;;;;;;;;;5047603;28;20057;-53
2022/06/04 01:51:00;;;;;;;2.75;2.03;;;;;;;;;;5034091;28;20041;-54
2022/06/04 01:53:31;;;;;;;2.08;1.60;;;;;;;;;;5036228;28;20037;-51
2022/06/04 01:55:59;;;;;;;2.97;1.63;;;;;;;;;;5032934;28;20032;-51
2022/06/04 01:58:51;;;;;;;2.72;1.80;;;;;;;;;;5046212;28;20029;-53
2022/06/04 02:01:20;;;;;;;4.50;1.83;;;;;;;;;;5032696;28;20049;-54
2022/06/04 02:03:50;;;;;;;3.35;2.03;;;;;;;;;;5047183;28;20603;-51
2022/06/04 02:06:20;;;;;;;6.72;2.05;;;;;;;;;;5045475;28;20037;-52
2022/06/04 02:08:59;;;;;;;4.30;1.73;;;;;;;;;;5040355;28;20045;-52
2022/06/04 02:11:26;;;;;;;2.83;1.60;;;;;;;;;;5047819;28;20028;-51
2022/06/04 02:13:55;;;;;;;2.25;1.52;;;;;;;;;;5048372;28;20427;-51
2022/06/04 02:16:26;;;;;;;2.28;1.65;;;;;;;;;;5039536;28;20033;-53
2022/06/04 02:18:52;;;;;;;2.45;1.33;;;;;;;;;;5043428;28;20111;-54
2022/06/04 02:21:18;;;;;;;4.07;1.60;;;;;;;;;;5034819;28;20421;-55
2022/06/04 02:23:45;;;;;;;3.53;1.83;;;;;;;;;;5037423;28;20044;-54
2022/06/04 02:26:11;;;;;;;4.32;2.00;;;;;;;;;;5047782;28;20519;-54
2022/06/04 02:28:37;;;;;;;3.45;1.52;;;;;;;;;;5035802;28;20060;-54
2022/06/04 02:31:16;;;;;;;2.13;1.50;;;;;;;;;;5044591;28;20029;-54
2022/06/04 02:33:58;;;;;;;2.88;1.73;;;;;;;;;;5040676;28;20056;-55
2022/06/04 02:36:33;;;;;;;3.78;1.90;;;;;;;;;;5044548;28;20121;-51
2022/06/04 02:39:08;;;;;;;3.80;2.00;;;;;;;;;;5036823;28;20025;-55
2022/06/04 02:41:44;;;;;;;5.13;1.60;;;;;;;;;;5043227;28;20030;-54
2022/06/04 02:44:16;;;;;;;1.70;1.23;;;;;;;;;;5033416;28;20037;-51
2022/06/04 02:46:52;;;;;;;2.57;1.60;;;;;;;;;;5043926;28;20460;-52
2022/06/04 02:49:26;;;;;;;5.53;1.52;;;;;;;;;;5037730;28;20413;-55
2022/06/04 02:51:54;;;;;;;5.95;1.80;;;;;;;;;;5031024;28;20022;-53
2022/06/04 02:54:23;;;;;;;3.25;1.60;;;;;;;;;;5029772;28;20017;-51
2022/06/04 02:56:49;;;;;;;2.08;1.33;;;;;;;;;;5043921;28;20099;-51
2022/06/04 02:59:17;;;;;;;3.67;1.88;;;;;;;;;;5040610;28;20476;-51
2022/06/04 03:01:44;;;;;;;3.08;2.03;;;;;;;;;;5037251;28;20041;-52
2022/06/04 03:04:11;;;;;;;4.03;1.92;;;;;;;;;;5036233;28;20051;-53
2022/06/04 03:06:37;;;;;;;3.25;1.90;;;;;;;;;;5046057;28;20108;-53
2022/06/04 03:09:14;;;;;;;1.80;1.48;;;;;;;;;;5038355;28;20060;-55
2022/06/04 03:11:44;;;;;;;5.45;1.73;;;;;;;;;;5046969;28;20029;-53
2022/06/04 03:14:11;;;;;;;1.40;1.20;;;;;;;;;;5049098;28;20021;-52
2022/06/04 03:16:38;;;;;;;3.90;1.50;;;;;;;;;;5046440;28;20028;-49
2022/06/04 03:19:07;;;;;;;4.38;1.90;;;;;;;;;;5040034;28;20044;-48
2022/06/04 03:21:33;;;;;;;2.08;1.50;;;;;;;;;;5036898;28;20044;-48
2022/06/04 03:23:59;;;;;;;3.70;1.52;;;;;;;;;;5045436;28;20100;-50
2022/06/04 03:26:25;;;;;;;3.75;1.70;;;;;;;;;;5049421;28;20029;-48
2022/06/04 03:28:51;;;;;;;4.00;1.90;;;;;;;;;;5041378;28;20022;-49
2022/06/04 03:31:17;;;;;;;2.83;1.83;;;;;;;;;;5043894;28;20497;-49
2022/06/04 03:33:43;;;;;;;4.80;1.75;;;;;;;;;;5052522;28;20021;-50
2022/06/04 03:36:10;;;;;;;4.32;1.60;;;;;;;;;;5045580;28;20184;-48
2022/06/04 03:38:36;;;;;;;2.13;1.52;;;;;;;;;;5046356;28;20113;-48
2022/06/04 03:41:02;;;;;;;4.32;2.42;;;;;;;;;;5035331;28;20149;-49
2022/06/04 03:43:28;;;;;;;3.00;1.67;;;;;;;;;;5038602;28;20037;-49
2022/06/04 03:45:54;;;;;;;4.07;1.60;;;;;;;;;;5043740;28;20025;-49
2022/06/04 03:48:20;;;;;;;2.35;1.38;;;;;;;;;;5041434;28;20566;-48
2022/06/04 03:50:46;;;;;;;1.75;1.48;;;;;;;;;;5043298;28;20060;-51
2022/06/04 03:53:12;;;;;;;4.40;2.00;;;;;;;;;;5049320;28;20028;-51
2022/06/04 03:55:38;;;;;;;6.68;1.73;;;;;;;;;;5044187;28;20359;-48
2022/06/04 03:58:04;;;;;;;2.63;1.70;;;;;;;;;;5042725;28;20029;-49
2022/06/04 04:00:32;;;;;;;6.50;1.80;;;;;;;;;;5041227;28;20034;-49
2022/06/04 04:02:59;;;;;;;3.10;2.03;;;;;;;;;;5041528;28;20032;-48
2022/06/04 04:05:27;;;;;;;3.83;1.75;;;;;;;;;;5043485;28;20025;-47
2022/06/04 04:07:54;;;;;;;7.20;1.67;;;;;;;;;;5044728;28;20389;-47
2022/06/04 04:10:20;;;;;;;2.40;1.58;;;;;;;;;;5046254;28;20432;-51
2022/06/04 04:12:46;;;;;;;5.75;1.70;;;;;;;;;;5049415;28;20025;-53
2022/06/04 04:15:13;;;;;;;3.40;1.83;;;;;;;;;;5042080;28;20029;-52
2022/06/04 04:17:39;;;;;;;3.63;1.50;;;;;;;;;;5043723;28;20018;-49
2022/06/04 04:20:11;;;;;;;2.17;1.20;;;;;;;;;;5044423;28;20151;-51
2022/06/04 04:22:37;;;;;;;3.40;1.80;;;;;;;;;;5052960;28;20032;-49
2022/06/04 04:25:04;;;;;;;2.72;1.77;;;;;;;;;;5043932;28;20400;-49
2022/06/04 04:27:30;;;;;;;3.25;1.45;;;;;;;;;;5045786;28;20468;-48
2022/06/04 04:29:56;;;;;;;2.22;1.73;;;;;;;;;;5050487;28;20028;-49
2022/06/04 04:32:22;;;;;;;5.05;1.92;;;;;;;;;;5042616;28;20120;-49
2022/06/04 04:34:48;;;;;;;3.85;1.58;;;;;;;;;;5049495;28;20029;-52
2022/06/04 04:37:14;;;;;;;3.45;1.58;;;;;;;;;;5030256;28;20043;-49
2022/06/04 04:39:40;;;;;;;7.80;1.67;;;;;;;;;;5051986;28;20075;-50
2022/06/04 04:42:06;;;;;;;4.38;1.67;;;;;;;;;;5037896;28;20507;-51
2022/06/04 04:44:32;;;;;;;2.95;1.63;;;;;;;;;;5045585;28;20026;-49
2022/06/04 04:46:58;;;;;;;3.47;1.50;;;;;;;;;;5040125;28;20104;-51
2022/06/04 04:49:24;;;;;;;4.10;1.60;;;;;;;;;;5051178;28;20055;-49
2022/06/04 04:51:50;;;;;;;2.08;1.67;;;;;;;;;;5038373;28;20434;-52
2022/06/04 04:54:16;;;;;;;2.78;1.80;;;;;;;;;;5045329;28;20083;-49
2022/06/04 04:56:42;;;;;;;6.93;1.50;;;;;;;;;;5047055;28;20033;-51
2022/06/04 04:59:09;;;;;;;2.55;1.80;;;;;;;;;;5030569;28;20511;-51
2022/06/04 05:01:35;;;;;;;4.65;2.35;;;;;;;;;;5039532;28;20033;-48
2022/06/04 05:04:01;;;;;;;5.70;1.77;;;;;;;;;;5039878;28;20056;-53
2022/06/04 05:06:26;;;;;;;3.53;1.40;;;;;;;;;;5039611;28;20038;-49
2022/06/04 05:08:52;;;;;;;3.97;1.45;;;;;;;;;;5036496;28;20111;-51
2022/06/04 05:11:27;;;;;;;3.53;1.50;;;;;;;;;;5038108;28;20029;-50
2022/06/04 05:13:53;;;;;;;4.13;1.50;;;;;;;;;;5048782;28;20029;-49
2022/06/04 05:16:24;;;;;;;3.03;1.90;;;;;;;;;;5048236;28;20024;-49
2022/06/04 05:18:50;;;;;;;3.42;1.63;;;;;;;;;;5043559;28;20026;-48
2022/06/04 05:21:27;;;;;;;2.55;1.50;;;;;;;;;;5044188;28;20056;-48
2022/06/04 05:23:57;;;;;;;3.13;1.40;;;;;;;;;;5047274;28;20068;-50
2022/06/04 05:26:23;;;;;;;3.08;1.58;;;;;;;;;;5040195;28;20033;-49
2022/06/04 05:28:49;;;;;;;2.78;1.80;;;;;;;;;;5041604;28;20030;-50
2022/06/04 05:31:16;;;;;;;2.65;1.85;;;;;;;;;;5049240;28;20498;-48
2022/06/04 05:33:42;;;;;;;3.22;1.60;;;;;;;;;;5033149;28;20037;-47
2022/06/04 05:36:08;;;;;;;2.42;1.23;;;;;;;;;;5043151;28;20556;-49
2022/06/04 05:38:34;;;;;;;6.70;1.83;;;;;;;;;;5045105;28;20029;-48
2022/06/04 05:41:15;;;;;;;5.88;1.90;;;;;;;;;;5042323;28;20448;-49
2022/06/04 05:43:41;;;;;;;6.60;2.90;;;;;;;;;;5036191;28;20025;-47
2022/06/04 05:46:08;;;;;;;4.55;1.80;;;;;;;;;;5047477;28;20031;-50
2022/06/04 05:48:37;;;;;;;3.47;1.67;;;;;;;;;;5043508;28;20503;-48
2022/06/04 05:51:03;;;;;;;4.80;1.77;;;;;;;;;;5041742;28;20481;-49
2022/06/04 05:53:29;;;;;;;3.20;1.67;;;;;;;;;;5048224;28;20107;-50
2022/06/04 05:55:55;;;;;;;4.32;1.80;;;;;;;;;;5045329;28;20595;-48
2022/06/04 05:58:21;;;;;;;3.13;1.48;;;;;;;;;;5045133;28;20029;-51
2022/06/04 06:00:47;;;;;;;3.35;1.70;;;;;;;;;;5042794;28;20062;-51
2022/06/04 06:03:13;;;;;;;2.78;1.70;;;;;;;;;;5043269;28;20103;-49
2022/06/04 06:05:44;;;;;;;2.53;1.60;;;;;;;;;;5046112;28;20625;-49
2022/06/04 06:08:10;;;;;;;4.22;1.80;;;;;;;;;;5042545;28;20501;-49
2022/06/04 06:10:40;;;;;;;3.03;1.40;;;;;;;;;;5045218;28;20155;-49
2022/06/04 06:13:06;;;;;;;3.45;1.60;;;;;;;;;;5038712;28;20033;-48
2022/06/04 06:15:33;;;;;;;3.83;1.75;;;;;;;;;;5040241;28;20093;-49
2022/06/04 06:17:59;;;;;;;2.85;1.75;;;;;;;;;;5046807;28;20025;-47
2022/06/04 06:20:25;;;;;;;4.50;1.58;;;;;;;;;;5020264;28;20543;-50
2022/06/04 06:22:51;;;;;;;5.13;2.15;;;;;;;;;;5037267;28;20028;-48
2022/06/04 06:25:18;;;;;;;4.38;1.90;;;;;;;;;;5043019;28;20025;-47
2022/06/04 06:27:44;;;;;;;2.92;1.83;;;;;;;;;;5036612;28;20021;-50
2022/06/04 06:30:10;;;;;;;4.10;1.75;;;;;;;;;;5039515;28;20535;-50
2022/06/04 06:32:36;;;;;;;3.90;1.75;;;;;;;;;;5038470;28;20029;-49
2022/06/04 06:35:03;;;;;;;6.65;1.77;;;;;;;;;;5031813;28;20036;-47
2022/06/04 06:37:29;;;;;;;2.60;1.70;;;;;;;;;;5049760;28;20120;-49
2022/06/04 06:39:56;;;;;;;1.83;1.35;;;;;;;;;;5031914;28;20033;-48
2022/06/04 06:42:22;;;;;;;3.58;1.70;;;;;;;;;;5035338;28;20033;-52
2022/06/04 06:44:48;;;;;;;3.72;1.20;;;;;;;;;;5046554;28;20033;-51
2022/06/04 06:47:15;;;;;;;2.80;1.50;;;;;;;;;;5032795;28;20048;-49
2022/06/04 06:49:41;;;;;;;1.88;1.25;;;;;;;;;;5032053;28;20532;-51
2022/06/04 06:52:08;;;;;;;3.33;1.60;;;;;;;;;;5053632;28;20020;-49
2022/06/04 06:54:35;;;;;;;4.13;1.40;;;;;;;;;;5047473;28;20032;-49
2022/06/04 06:57:02;;;;;;;2.70;1.63;;;;;;;;;;5048408;28;20499;-50
2022/06/04 06:59:28;;;;;;;3.05;1.10;;;;;;;;;;5034380;28;20077;-47
2022/06/04 07:01:55;;;;;;;3.00;1.58;;;;;;;;;;5039052;28;20091;-47
2022/06/04 07:04:21;;;;;;;1.70;1.20;;;;;;;;;;5042296;28;20514;-48
2022/06/04 07:06:51;;;;;;;3.13;1.52;;;;;;;;;;5049986;28;20393;-48
2022/06/04 07:09:23;;;;;;;2.38;1.30;;;;;;;;;;5034609;28;20037;-50
2022/06/04 07:11:50;;;;;;;4.30;1.20;;;;;;;;;;5044487;28;20040;-49
2022/06/04 07:14:16;;;;;;;2.05;1.35;;;;;;;;;;5046238;28;20117;-49
2022/06/04 07:16:43;;;;;;;4.13;1.25;;;;;;;;;;5038959;28;20385;-51
2022/06/04 07:19:11;;;;;;;2.70;1.13;;;;;;;;;;5043409;28;20071;-51
2022/06/04 07:21:36;;;;;;;2.58;1.20;;;;;;;;;;5042903;28;20116;-51
2022/06/04 07:24:03;;;;;;;2.03;1.15;;;;;;;;;;5017087;28;20049;-49
2022/06/04 07:26:29;;;;;;;5.55;1.08;;;;;;;;;;5041855;28;20568;-48
2022/06/04 07:28:55;;;;;;;3.75;1.13;;;;;;;;;;5041908;28;20036;-51
2022/06/04 07:31:21;;;;;;;2.85;0.90;;;;;;;;;;5046863;28;20482;-49
2022/06/04 07:33:48;;;;;;;4.90;1.10;;;;;;;;;;5048337;28;20029;-49
2022/06/04 07:36:16;;;;;;;1.98;1.13;;;;;;;;;;5051188;28;20029;-50
2022/06/04 07:38:42;;;;;;;2.13;1.00;;;;;;;;;;5052501;28;20025;-53
2022/06/04 07:41:08;;;;;;;1.45;1.00;;;;;;;;;;5034740;28;20512;-51
2022/06/04 07:43:34;;;;;;;4.13;1.40;;;;;;;;;;5044731;28;20029;-47
2022/06/04 07:46:01;;;;;;;6.70;1.70;;;;;;;;;;5039599;28;20033;-48
2022/06/04 07:48:27;;;;;;;1.38;0.85;;;;;;;;;;5040066;28;20366;-47
2022/06/04 07:50:54;;;;;;;2.85;0.95;;;;;;;;;;5044594;28;20083;-51
2022/06/04 07:53:20;;;;;;;1.60;1.00;;;;;;;;;;5045488;28;20378;-52
2022/06/04 07:55:46;;;;;;;3.00;1.27;;;;;;;;;;5046250;28;20029;-48
2022/06/04 07:58:12;;;;;;;1.90;1.05;;;;;;;;;;5030231;28;20033;-48
2022/06/04 08:00:38;;;;;;;3.17;1.20;;;;;;;;;;5049538;28;20642;-49
2022/06/04 08:03:05;;;;;;;1.73;0.82;;;;;;;;;;5050774;28;20028;-48
2022/06/04 08:05:31;;;;;;;2.13;0.95;;;;;;;;;;5044393;28;20036;-49
2022/06/04 08:07:57;;;;;;;2.20;0.98;;;;;;;;;;5031984;28;20052;-49
2022/06/04 08:10:23;;;;;;;1.42;0.95;;;;;;;;;;5041258;28;20049;-51
2022/06/04 08:12:51;;;;;;;2.17;1.20;;;;;;;;;;5041387;28;20059;-49
2022/06/04 08:15:17;;;;;;;3.83;1.02;;;;;;;;;;5061635;28;20111;-49
2022/06/04 08:17:43;;;;;;;2.13;1.00;;;;;;;;;;5054886;28;20052;-50
2022/06/04 08:20:10;;;;;;;2.00;1.17;;;;;;;;;;5047874;28;20025;-49
2022/06/04 08:22:36;;;;;;;1.17;0.85;;;;;;;;;;5023792;28;20179;-47
2022/06/04 08:25:02;;;;;;;2.25;1.15;;;;;;;;;;5033629;28;20033;-48
2022/06/04 08:27:28;;;;;;;5.10;1.40;;;;;;;;;;5039644;28;20552;-48
2022/06/04 08:29:54;;;;;;;3.38;1.05;;;;;;;;;;5028936;28;20029;-50
2022/06/04 08:32:20;;;;;;;2.75;1.00;;;;;;;;;;5035241;28;20018;-49
2022/06/04 08:34:46;;;;;;;1.73;0.95;;;;;;;;;;5033080;28;20029;-50
2022/06/04 08:37:12;;;;;;;2.13;0.88;;;;;;;;;;5034698;28;20361;-50
2022/06/04 08:39:38;;;;;;;2.90;1.10;;;;;;;;;;5033790;28;20427;-48
2022/06/04 08:42:13;;;;;;;4.78;1.15;;;;;;;;;;5033783;28;20021;-51
2022/06/04 08:44:39;;;;;;;2.17;1.08;;;;;;;;;;5030808;28;20026;-48
2022/06/04 08:47:08;;;;;;;3.20;0.80;;;;;;;;;;5039774;28;20029;-50
2022/06/04 08:49:36;;;;;;;1.00;0.63;;;;;;;;;;5043340;28;20380;-51
2022/06/04 08:52:04;;;;;;;2.75;0.85;;;;;;;;;;5043042;28;20661;-51
2022/06/04 08:57:33;;;;;;;1.75;0.80;;;;;;;;;;5029317;28;20040;-49
2022/06/04 08:59:59;;;;;;;;;;;;;;;;;;5045696;28;20029;-50
2022/06/04 09:02:29;;;;;;;2.42;1.00;;;;;;;;;;5040001;28;19962;-52
2022/06/04 09:05:32;;;;;;;1.73;0.98;;;;;;;;;;5043323;28;20476;-49
2022/06/04 09:08:00;;;;;;;2.25;0.88;;;;;;;;;;4949762;29;20423;-49
2022/06/04 09:10:32;;;;;;;3.60;1.08;;;;;;;;;;5017150;28;20481;-49
2022/06/04 09:13:17;;;;;;;1.92;1.00;;;;;;;;;;5043571;28;20096;-49
2022/06/04 09:15:45;;;;;;;3.40;1.00;;;;;;;;;;5043642;28;20102;-48
2022/06/04 09:18:32;;;;;;;2.03;0.80;;;;;;;;;;5040216;28;20491;-51
2022/06/04 09:21:01;;;;;;;1.17;0.80;;;;;;;;;;5020985;28;20053;-52
2022/06/04 09:23:31;;;;;;;2.55;1.02;;;;;;;;;;5036161;28;20033;-51
2022/06/04 09:26:04;;;;;;;2.92;1.13;;;;;;;;;;5045178;28;20136;-51
2022/06/04 09:28:43;;;;;;;1.00;0.90;;;;;;;;;;5043379;28;20071;-52
2022/06/04 09:31:16;;;;;;;1.77;0.75;;;;;;;;;;5031821;28;20392;-50
2022/06/04 09:33:42;;;;;;;;;;;;;;;;;;5032715;28;20450;-51
2022/06/04 09:36:11;;;;;;;2.05;0.82;;;;;;;;;;5035405;28;19943;-50
2022/06/04 09:38:37;;;;;;;2.45;0.82;;;;;;;;;;5031722;28;20029;-51
2022/06/04 09:41:04;;;;;;;2.38;0.80;;;;;;;;;;5037557;28;20078;-48
2022/06/04 09:43:30;;;;;;;1.83;0.80;;;;;;;;;;5047524;28;20060;-52
2022/06/04 09:45:59;;;;;;;3.05;0.90;;;;;;;;;;5053476;28;20056;-51
2022/06/04 09:48:32;;;;;;;8.65;1.35;;;;;;;;;;5029363;28;20043;-52
2022/06/04 09:51:03;;;;;;;1.17;0.98;;;;;;;;;;5038398;28;20152;-51
2022/06/04 09:53:31;;;;;;;1.17;0.65;;;;;;;;;;5039640;28;20045;-50
2022/06/04 09:55:59;;;;;;;1.88;0.90;;;;;;;;;;5041459;28;20447;-50
2022/06/04 09:58:29;;;;;;;1.65;0.80;;;;;;;;;;5038717;28;20032;-49
2022/06/04 10:01:05;;;;;;;1.40;0.80;;;;;;;;;;5045005;28;20055;-49
2022/06/04 10:03:33;;;;;;;2.47;1.38;;;;;;;;;;5041065;28;20041;-52
2022/06/04 10:06:02;;;;;;;1.05;0.75;;;;;;;;;;5029552;28;20520;-51
2022/06/04 10:08:29;;;;;;;1.33;0.90;;;;;;;;;;5021613;28;20135;-48
2022/06/04 10:10:59;;;;;;;3.63;0.90;;;;;;;;;;5026769;28;20546;-50
2022/06/04 10:13:42;;;;;;;3.45;0.90;;;;;;;;;;5040463;28;20492;-51
2022/06/04 10:16:16;;;;;;;2.35;1.38;;;;;;;;;;5040978;28;20107;-51
2022/06/04 10:18:52;;;;;;;1.27;0.85;;;;;;;;;;5044526;28;20033;-50
2022/06/04 10:21:23;;;;;;;3.67;1.15;;;;;;;;;;5039080;28;20534;-48
2022/06/04 10:23:54;;;;;;;2.55;0.95;;;;;;;;;;5032709;28;20131;-49
2022/06/04 10:26:38;;;;;;;2.35;0.93;;;;;;;;;;5034328;28;20031;-50
2022/06/04 10:29:14;;;;;;;0.95;0.70;;;;;;;;;;5027384;28;20029;-48
2022/06/04 10:31:48;;;;;;;1.95;0.95;;;;;;;;;;5043098;28;20036;-54
2022/06/04 10:34:36;;;;;;;2.33;1.00;;;;;;;;;;5032212;28;20033;-48
2022/06/04 10:37:20;;;;;;;2.00;0.90;;;;;;;;;;5047452;28;20480;-48
2022/06/04 10:40:17;;;;;;;3.78;0.90;;;;;;;;;;5041147;28;20455;-50
2022/06/04 10:42:50;;;;;;;1.73;1.05;;;;;;;;;;5043666;28;20035;-49
2022/06/04 10:45:23;;;;;;;3.88;0.90;;;;;;;;;;5040172;28;20029;-47
2022/06/04 10:47:56;;;;;;;2.67;1.10;;;;;;;;;;5030906;28;20374;-48
2022/06/04 10:50:30;;;;;;;1.92;0.90;;;;;;;;;;5044471;28;20029;-47
2022/06/04 10:53:07;;;;;;;1.50;0.80;;;;;;;;;;5031129;28;20033;-50
2022/06/04 10:55:42;;;;;;;1.40;0.60;;;;;;;;;;5049107;28;20488;-49
2022/06/04 10:58:27;;;;;;;2.03;0.80;;;;;;;;;;5038228;28;20033;-48
2022/06/04 11:01:12;;;;;;;4.25;1.00;;;;;;;;;;5030010;28;20030;-51
2022/06/04 11:03:41;;;;;;;1.23;0.60;;;;;;;;;;5039038;28;20485;-50
2022/06/04 11:06:14;;;;;;;2.03;0.80;;;;;;;;;;5043021;28;20045;-50
2022/06/04 11:08:47;;;;;;;0.68;0.65;;;;;;;;;;5043031;28;20063;-52
2022/06/04 11:11:17;;;;;;;1.95;0.88;;;;;;;;;;5047910;28;20056;-53
2022/06/04 11:13:45;;;;;;;0.88;0.55;;;;;;;;;;5045689;28;20036;-48
2022/06/04 11:16:11;;;;;;;3.53;0.88;;;;;;;;;;5048984;28;20412;-49
2022/06/04 11:18:46;;;;;;;1.52;0.90;;;;;;;;;;5043138;28;20030;-51
2022/06/04 11:21:20;;;;;;;1.40;0.80;;;;;;;;;;5048934;28;20045;-48
2022/06/04 11:24:01;;;;;;;0.77;0.65;;;;;;;;;;5030690;28;20030;-48
2022/06/04 11:26:39;;;;;;;2.35;1.00;;;;;;;;;;5036513;28;20067;-47
2022/06/04 11:29:06;;;;;;;2.33;0.85;;;;;;;;;;5036708;28;20029;-52
2022/06/04 11:31:45;;;;;;;3.22;0.80;;;;;;;;;;5043867;28;20052;-52
2022/06/04 11:34:34;;;;;;;2.20;1.20;;;;;;;;;;5036192;28;20514;-47
2022/06/04 11:37:19;;;;;;;2.05;0.90;;;;;;;;;;5052671;28;20020;-48
2022/06/04 11:40:03;;;;;;;1.38;0.93;;;;;;;;;;5034418;28;20033;-47
2022/06/04 11:42:48;;;;;;;2.55;0.90;;;;;;;;;;5040896;28;20104;-52
2022/06/04 11:45:26;;;;;;;1.30;1.00;;;;;;;;;;5046244;28;20030;-52
2022/06/04 11:48:00;;;;;;;1.63;0.90;;;;;;;;;;5044497;28;20052;-53
2022/06/04 11:50:36;;;;;;;4.25;1.00;;;;;;;;;;5059092;28;20472;-52
2022/06/04 11:53:20;;;;;;;3.92;0.98;;;;;;;;;;5052403;28;20025;-54
2022/06/04 11:55:52;;;;;;;1.55;0.80;;;;;;;;;;5048485;28;20029;-49
2022/06/04 11:58:44;;;;;;;2.67;1.00;;;;;;;;;;5041462;28;20037;-53
2022/06/04 12:01:15;;;;;;;3.22;0.90;;;;;;;;;;5040183;28;20040;-48
2022/06/04 12:04:00;;;;;;;1.17;0.90;;;;;;;;;;5046226;28;20037;-50
2022/06/04 12:06:36;;;;;;;3.17;1.00;;;;;;;;;;5045833;28;20028;-49
2022/06/04 12:09:10;;;;;;;1.80;1.02;;;;;;;;;;5046679;28;20053;-52
2022/06/04 12:11:55;;;;;;;2.97;1.08;;;;;;;;;;5034187;28;20104;-52
2022/06/04 12:14:30;;;;;;;1.30;0.90;;;;;;;;;;5036184;28;20029;-53
2022/06/04 12:17:08;;;;;;;1.80;1.10;;;;;;;;;;5046478;28;20043;-52
2022/06/04 12:25:34;;;;;;;1.70;0.90;;;;;;;;;;5044130;28;20127;-53
2022/06/04 12:28:01;;;;;;;2.55;1.15;;;;;;;;;;5040487;28;20179;-51
2022/06/04 12:30:42;;;;;;;1.58;1.10;;;;;;;;;;5045853;28;20047;-53
2022/06/04 12:33:18;;;;;;;3.67;1.30;;;;;;;;;;5041356;28;20108;-51
2022/06/04 12:35:53;;;;;;;2.35;0.90;;;;;;;;;;5039293;28;20048;-52
2022/06/04 12:38:22;;;;;;;1.55;0.90;;;;;;;;;;5066034;28;20108;-50
2022/06/04 12:40:50;;;;;;;2.75;0.75;;;;;;;;;;5049602;28;20186;-48
2022/06/04 12:43:19;;;;;;;2.60;0.80;;;;;;;;;;5041732;28;20028;-53
2022/06/04 12:45:47;;;;;;;2.00;0.93;;;;;;;;;;5054034;28;20029;-51
2022/06/04 12:48:19;;;;;;;2.03;1.10;;;;;;;;;;5054713;28;20526;-51
2022/06/04 12:50:48;;;;;;;1.88;1.10;;;;;;;;;;5043415;28;20084;-50
2022/06/04 12:53:17;;;;;;;1.55;1.13;;;;;;;;;;5052208;28;20037;-49
2022/06/04 12:55:50;;;;;;;1.83;0.98;;;;;;;;;;5029632;28;20025;-51
2022/06/04 12:58:25;;;;;;;1.20;0.90;;;;;;;;;;5044899;28;20086;-52
2022/06/04 13:00:59;;;;;;;4.00;1.10;;;;;;;;;;5056075;28;20044;-50
2022/06/04 13:03:28;;;;;;;0.88;0.77;;;;;;;;;;5043719;28;20626;-52
2022/06/04 13:05:58;;;;;;;2.78;1.13;;;;;;;;;;5042514;28;20696;-53
2022/06/04 13:08:41;;;;;;;0.95;0.68;;;;;;;;;;5032565;28;20417;-53
2022/06/04 13:11:25;;;;;;;2.90;1.00;;;;;;;;;;5020662;28;20033;-52
2022/06/04 13:13:51;;;;;;;1.33;0.55;;;;;;;;;;5023079;28;20026;-53
2022/06/04 13:16:24;;;;;;;2.20;0.80;;;;;;;;;;5020510;28;20057;-52
2022/06/04 13:19:07;;;;;;;2.83;0.80;;;;;;;;;;5016072;28;20629;-51
2022/06/04 13:21:34;;;;;;;1.98;0.70;;;;;;;;;;5024880;28;20037;-53
2022/06/04 13:24:04;;;;;;;0.85;0.60;;;;;;;;;;5023383;28;20525;-54
2022/06/04 13:26:46;;;;;;;0.77;0.60;;;;;;;;;;5023055;28;20502;-49
2022/06/04 13:29:24;;;;;;;2.37;1.00;;;;;;;;;;5018710;28;20033;-52
2022/06/04 13:31:51;;;;;;;5.18;0.95;;;;;;;;;;5019259;28;20485;-51
2022/06/04 13:34:20;;;;;;;2.08;0.75;;;;;;;;;;5028390;28;20021;-52
2022/06/04 13:36:48;;;;;;;3.30;1.05;;;;;;;;;;5028749;28;20029;-54
2022/06/04 13:39:18;;;;;;;1.00;0.60;;;;;;;;;;5030974;28;20025;-50
2022/06/04 13:42:09;;;;;;;1.85;0.90;;;;;;;;;;5019139;28;20033;-49
2022/06/04 13:44:37;;;;;;;3.30;1.02;;;;;;;;;;5037396;28;20040;-50
2022/06/04 13:47:14;;;;;;;1.48;0.88;;;;;;;;;;5021674;28;20033;-53
2022/06/04 13:49:40;;;;;;;0.80;0.55;;;;;;;;;;5028493;28;20492;-52
2022/06/04 13:52:12;;;;;;;2.03;0.73;;;;;;;;;;5025482;28;20037;-50
2022/06/04 13:54:40;;;;;;;1.20;0.75;;;;;;;;;;5030672;28;20152;-48
2022/06/04 13:57:12;;;;;;;1.13;0.63;;;;;;;;;;5014333;28;20034;-52
2022/06/04 13:59:42;;;;;;;0.73;0.70;;;;;;;;;;5016927;28;20030;-49
2022/06/04 14:02:17;;;;;;;2.10;0.63;;;;;;;;;;5012635;28;20055;-52
2022/06/04 14:07:34;;;;;;;1.55;0.70;;;;;;;;;;5032664;28;20079;-50
2022/06/04 14:10:00;;;;;;;1.77;0.80;;;;;;;;;;5024793;28;20034;-49
2022/06/04 14:12:47;;;;;;;1.40;0.75;;;;;;;;;;5019697;28;20022;-53
2022/06/04 14:15:21;;;;;;;1.02;0.50;;;;;;;;;;5009104;28;20435;-52
2022/06/04 14:18:02;;;;;;;1.52;0.57;;;;;;;;;;5028524;28;20030;-51
2022/06/04 14:20:47;;;;;;;3.88;0.60;;;;;;;;;;5025792;28;20033;-51
2022/06/04 14:23:30;;;;;;;10.07;1.00;;;;;;;;;;5022149;28;20517;-51
2022/06/04 14:26:11;;;;;;;0.73;0.50;;;;;;;;;;5023059;28;20533;-51
2022/06/04 14:28:38;;;;;;;1.52;0.90;;;;;;;;;;5020917;28;20477;-51
2022/06/04 14:31:23;;;;;;;14.90;3.22;;;;;;;;;;5020810;28;20022;-54
2022/06/04 14:33:48;;;;;;;2.15;0.70;;;;;;;;;;5026944;28;20603;-53
2022/06/04 14:36:19;;;;;;;0.93;0.68;;;;;;;;;;5026686;28;20025;-53
2022/06/04 14:38:46;;;;;;;1.45;0.80;;;;;;;;;;5022077;28;20496;-49
2022/06/04 14:41:17;;;;;;;2.75;0.80;;;;;;;;;;5017868;28;20032;-51
2022/06/04 14:44:02;;;;;;;1.23;0.73;;;;;;;;;;5017090;28;20532;-53
2022/06/04 14:46:46;;;;;;;1.17;0.50;;;;;;;;;;5013620;28;20031;-50
2022/06/04 14:49:38;;;;;;;1.23;0.70;;;;;;;;;;5011399;28;20053;-50
2022/06/04 14:52:19;;;;;;;2.10;1.08;;;;;;;;;;5026833;28;20037;-53
2022/06/04 14:54:48;;;;;;;1.77;0.88;;;;;;;;;;5015909;28;20025;-53
2022/06/04 14:57:27;;;;;;;1.48;0.88;;;;;;;;;;5018514;28;20041;-49
2022/06/04 15:00:23;;;;;;;1.67;0.80;;;;;;;;;;5012394;28;20083;-52
2022/06/04 15:03:08;;;;;;;2.50;0.60;;;;;;;;;;5017097;28;20037;-53
2022/06/04 15:05:37;;;;;;;1.20;0.60;;;;;;;;;;5018735;28;20084;-54
2022/06/04 15:08:30;;;;;;;1.88;0.90;;;;;;;;;;5012058;28;20524;-53
2022/06/04 15:11:31;;;;;;;2.10;0.90;;;;;;;;;;5009183;28;20041;-50
2022/06/04 15:14:16;;;;;;;0.98;0.60;;;;;;;;;;4947865;28;20163;-51
2022/06/04 15:16:45;;;;;;;1.77;0.80;;;;;;;;;;5025751;28;20051;-51
2022/06/04 15:19:11;;;;;;;1.35;0.93;;;;;;;;;;5021268;28;20474;-48
2022/06/04 15:21:46;;;;;;;4.53;1.17;;;;;;;;;;5021299;28;20374;-50